Worman, Pennsylvania
Current Conditions -  °F | °C
As of 10:54 PM on Saturday 25 Oct 2014 (Local Time) from KPTW Reporting Station
Scattered Clouds Scattered Clouds  
Wind Chill: 57°   Ceiling: Unl
Heat Index: 57°   Visibility: 10mi
Dew Point: 44°   Wind: 3mph
Humidity: 62%   Direction: 170°S
Pressure: 29.64"   Gusts: NA
Location:  40.2688°N, 75.7411°W
Report Text: KPTW 260254Z AUTO 17003KT 10SM SCT060 14/07 A2964 RMK AO2 SLP035 T01390067 57016
Loading
Personal Weather Stations






























Interactive Weather Map
Tropical Storm Tracking
New forecast layout! Learn more

10-Day Weather Forecast

Advertisements
Track Severe Weather on mobile